Bethlehem Center, New York
Current Conditions -  °F | °C
As of 5:51 AM on Friday 28 Nov 2014 (Local Time) from KALB Reporting Station
Moderate Fog Moderate Fog  
Wind Chill: 19°   Ceiling: 10000
Heat Index: 25°   Visibility: 10mi
Dew Point: 20°   Wind: 5mph
Humidity: 81%   Direction: 280°W
Pressure: 30.09"   Gusts: NA
Location:  42.5925°N, 73.7845°W
Report Text: KALB 281051Z 28004KT 10SM VCFG FEW006 SCT042 BKN100 M04/M07 A3009 RMK AO2 SLP192 VCFG NE T10391067
Loading
Personal Weather Stations






























Interactive Weather Map New forecast layout! Learn more

10-Day Weather Forecast

Advertisements
Track Severe Weather on mobile